createdAt,value
2017-11-25T00:00:39.447Z,85.67
2017-11-25T00:03:07.085Z,85.51
2017-11-25T00:05:34.755Z,85.93
2017-11-25T00:08:02.350Z,86.28
2017-11-25T00:10:30.229Z,86.32
2017-11-25T00:12:57.853Z,86.70
2017-11-25T00:15:25.460Z,87.32
2017-11-25T00:17:53.064Z,87.27
2017-11-25T00:20:20.697Z,87.46
2017-11-25T00:22:48.285Z,87.66
2017-11-25T00:25:15.888Z,87.63
2017-11-25T00:27:43.505Z,87.41
2017-11-25T00:30:11.111Z,87.11
2017-11-25T00:32:38.727Z,86.58
2017-11-25T00:35:06.371Z,86.40
2017-11-25T00:37:33.953Z,86.33
2017-11-25T00:40:01.561Z,86.32
2017-11-25T00:42:29.197Z,86.19
2017-11-25T00:44:56.921Z,85.94
2017-11-25T00:47:24.576Z,85.85
2017-11-25T00:49:52.226Z,85.54
2017-11-25T00:52:19.931Z,85.48
2017-11-25T00:54:47.541Z,85.41
2017-11-25T00:57:15.430Z,85.04
2017-11-25T00:59:43.005Z,84.90
2017-11-25T01:02:10.593Z,84.78
2017-11-25T01:04:38.225Z,84.67
2017-11-25T01:07:05.833Z,84.41
2017-11-25T01:09:33.737Z,84.40
2017-11-25T01:12:01.364Z,84.68
2017-11-25T01:14:29.271Z,84.55
2017-11-25T01:16:56.862Z,84.51
2017-11-25T01:19:24.498Z,84.65
2017-11-25T01:21:52.094Z,84.77
2017-11-25T01:24:19.683Z,84.62
2017-11-25T01:26:47.343Z,84.42
2017-11-25T01:29:14.937Z,84.26
2017-11-25T01:31:42.580Z,84.15
2017-11-25T01:34:10.213Z,83.88
2017-11-25T01:36:37.805Z,84.01
2017-11-25T01:39:05.421Z,84.09
2017-11-25T01:41:33.054Z,84.14
2017-11-25T01:44:00.653Z,84.11
2017-11-25T01:46:28.590Z,84.11
2017-11-25T01:48:56.213Z,84.09
2017-11-25T01:51:23.802Z,84.21
2017-11-25T01:53:51.670Z,84.26
2017-11-25T01:56:19.645Z,84.38
2017-11-25T01:58:47.234Z,83.93
2017-11-25T02:01:14.829Z,84.00
2017-11-25T02:03:42.463Z,84.08
2017-11-25T02:06:10.045Z,84.11
2017-11-25T02:08:37.628Z,84.10
2017-11-25T02:11:05.267Z,83.92
2017-11-25T02:13:32.857Z,83.79
2017-11-25T02:16:00.435Z,83.76
2017-11-25T02:18:28.069Z,83.92
2017-11-25T02:20:55.662Z,83.88
2017-11-25T02:23:23.251Z,83.89
2017-11-25T02:25:50.886Z,83.66
2017-11-25T02:28:18.473Z,83.60
2017-11-25T02:30:46.089Z,83.64
2017-11-25T02:33:13.713Z,83.84
2017-11-25T02:35:41.318Z,84.01
2017-11-25T02:38:08.918Z,83.94
2017-11-25T02:40:36.865Z,83.93
2017-11-25T02:43:04.462Z,83.85
2017-11-25T02:45:32.064Z,83.72
2017-11-25T02:47:59.693Z,83.64
2017-11-25T02:50:27.321Z,83.65
2017-11-25T02:52:54.936Z,83.54
2017-11-25T02:55:22.572Z,83.45
2017-11-25T02:57:50.158Z,83.30
2017-11-25T03:00:17.746Z,83.28
2017-11-25T03:02:45.368Z,83.50
2017-11-25T03:05:12.985Z,83.14
2017-11-25T03:07:40.574Z,83.38
2017-11-25T03:10:08.510Z,83.35
2017-11-25T03:12:36.111Z,83.56
2017-11-25T03:15:04.179Z,83.43
2017-11-25T03:17:31.816Z,83.17
2017-11-25T03:19:59.415Z,83.02
2017-11-25T03:22:27.054Z,83.14
2017-11-25T03:24:54.695Z,83.03
2017-11-25T03:27:22.295Z,83.03
2017-11-25T03:29:49.912Z,83.41
2017-11-25T03:32:17.844Z,83.79
2017-11-25T03:34:45.443Z,84.01
2017-11-25T03:37:13.129Z,83.87
2017-11-25T03:39:41.500Z,83.95
2017-11-25T03:42:09.093Z,83.97
2017-11-25T03:44:36.693Z,83.95
2017-11-25T03:47:04.593Z,84.02
2017-11-25T03:49:32.178Z,83.92
2017-11-25T03:51:59.787Z,84.03
2017-11-25T03:54:27.472Z,83.85
2017-11-25T03:56:55.336Z,83.33
2017-11-25T03:59:22.938Z,83.49
2017-11-25T04:01:50.869Z,83.84
2017-11-25T04:04:18.457Z,83.82
2017-11-25T04:06:46.403Z,84.10
2017-11-25T04:09:14.046Z,84.07
2017-11-25T04:11:41.630Z,83.99
2017-11-25T04:14:09.498Z,84.09
2017-11-25T04:16:37.121Z,83.54
2017-11-25T04:19:04.712Z,83.69
2017-11-25T04:21:32.297Z,83.68
2017-11-25T04:23:59.934Z,84.02
2017-11-25T04:26:27.535Z,84.19
2017-11-25T04:28:55.114Z,83.88
2017-11-25T04:31:23.035Z,83.83
2017-11-25T04:33:50.901Z,84.41
2017-11-25T04:36:18.773Z,84.31
2017-11-25T04:38:46.407Z,84.63
2017-11-25T04:41:14.304Z,84.92
2017-11-25T04:43:42.167Z,85.07
2017-11-25T04:46:09.801Z,85.07
2017-11-25T04:48:37.389Z,85.30
2017-11-25T04:51:05.002Z,85.27
2017-11-25T04:53:32.629Z,84.74
2017-11-25T04:56:00.218Z,84.93
2017-11-25T04:58:27.958Z,84.88
2017-11-25T05:00:55.611Z,84.86
2017-11-25T05:03:23.473Z,84.57
2017-11-25T05:05:51.091Z,84.79
2017-11-25T05:08:18.722Z,84.94
2017-11-25T05:10:46.315Z,85.06
2017-11-25T05:13:13.939Z,85.20
2017-11-25T05:15:41.556Z,85.48
2017-11-25T05:18:09.156Z,85.67
2017-11-25T05:20:36.741Z,86.03
2017-11-25T05:23:04.366Z,86.48
2017-11-25T05:25:31.956Z,86.76
2017-11-25T05:27:59.538Z,86.91
2017-11-25T05:30:27.465Z,86.63
2017-11-25T05:32:55.071Z,86.60
2017-11-25T05:35:22.664Z,86.19
2017-11-25T05:37:50.294Z,86.14
2017-11-25T05:40:17.872Z,86.92
2017-11-25T05:42:45.464Z,86.70
2017-11-25T05:45:13.089Z,86.40
2017-11-25T05:47:40.681Z,86.44
2017-11-25T05:50:08.317Z,86.77
2017-11-25T05:52:35.950Z,87.27
2017-11-25T05:55:03.592Z,87.21
2017-11-25T05:57:31.194Z,87.16
2017-11-25T05:59:58.838Z,87.34
2017-11-25T06:02:26.780Z,87.44
2017-11-25T06:04:54.390Z,87.33
2017-11-25T06:07:22.025Z,87.59
2017-11-25T06:09:49.665Z,87.93
2017-11-25T06:12:17.253Z,87.70
2017-11-25T06:14:44.875Z,87.96
2017-11-25T06:17:12.466Z,87.86
2017-11-25T06:19:40.064Z,88.83
2017-11-25T06:22:07.701Z,88.11
2017-11-25T06:24:35.476Z,88.00
2017-11-25T06:27:03.245Z,87.70
2017-11-25T06:29:33.189Z,87.53
2017-11-25T06:32:00.776Z,87.34
2017-11-25T06:34:29.516Z,88.15
2017-11-25T06:36:57.404Z,87.81
2017-11-25T06:39:25.188Z,87.89
2017-11-25T06:41:52.786Z,87.94
2017-11-25T06:44:20.508Z,88.58
2017-11-25T06:46:48.400Z,88.57
2017-11-25T06:49:15.985Z,88.74
2017-11-25T06:51:43.849Z,88.45
2017-11-25T06:54:11.473Z,88.89
2017-11-25T06:56:39.095Z,88.61
2017-11-25T06:59:06.720Z,88.54
2017-11-25T07:01:34.578Z,88.25
2017-11-25T07:04:02.462Z,89.60
2017-11-25T07:06:30.156Z,88.82
2017-11-25T07:08:57.751Z,88.84
2017-11-25T07:11:25.359Z,88.60
2017-11-25T07:13:53.019Z,88.41
2017-11-25T07:16:20.628Z,88.49
2017-11-25T07:18:48.210Z,89.34
2017-11-25T07:21:15.837Z,89.67
2017-11-25T07:23:43.440Z,89.97
2017-11-25T07:26:11.025Z,89.91
2017-11-25T07:28:38.649Z,88.68
2017-11-25T07:31:06.256Z,88.49
2017-11-25T07:33:34.096Z,89.11
2017-11-25T07:36:01.774Z,89.37
2017-11-25T07:38:29.435Z,89.27
2017-11-25T07:40:57.042Z,88.41
2017-11-25T07:43:24.677Z,88.76
2017-11-25T07:45:52.279Z,88.83
2017-11-25T07:48:20.251Z,89.13
2017-11-25T07:50:47.885Z,88.77
2017-11-25T07:53:16.271Z,89.09
2017-11-25T07:55:44.191Z,89.53
2017-11-25T07:58:12.530Z,88.61
2017-11-25T08:00:40.143Z,88.87
2017-11-25T08:03:07.733Z,89.61
2017-11-25T08:05:35.349Z,89.30
2017-11-25T08:08:02.950Z,88.56
2017-11-25T08:10:30.537Z,88.89
2017-11-25T08:12:58.201Z,89.20
2017-11-25T08:15:25.794Z,88.37
2017-11-25T08:17:53.399Z,88.68
2017-11-25T08:20:21.294Z,89.05
2017-11-25T08:22:48.946Z,88.57
2017-11-25T08:25:16.596Z,88.61
2017-11-25T08:27:44.227Z,88.92
2017-11-25T08:30:11.809Z,88.72
2017-11-25T08:32:39.448Z,88.71
2017-11-25T08:35:07.065Z,88.82
2017-11-25T08:37:34.667Z,88.56
2017-11-25T08:40:02.254Z,88.90
2017-11-25T08:42:30.040Z,89.80
2017-11-25T08:44:57.700Z,88.80
2017-11-25T08:47:25.638Z,88.57
2017-11-25T08:49:53.313Z,88.45
2017-11-25T08:52:20.906Z,88.11
2017-11-25T08:54:48.519Z,88.71
2017-11-25T08:57:16.161Z,87.83
2017-11-25T08:59:43.772Z,88.23
2017-11-25T09:02:11.382Z,88.35
2017-11-25T09:04:39.021Z,87.99
2017-11-25T09:07:06.656Z,88.32
2017-11-25T09:09:34.249Z,88.51
2017-11-25T09:12:01.882Z,89.51
2017-11-25T09:14:29.490Z,88.74
2017-11-25T09:16:57.121Z,88.95
2017-11-25T09:19:24.762Z,89.29
2017-11-25T09:21:52.706Z,88.77
2017-11-25T09:24:20.313Z,88.42
2017-11-25T09:26:47.954Z,88.62
2017-11-25T09:29:15.560Z,89.12
2017-11-25T09:31:43.464Z,89.10
2017-11-25T09:34:11.428Z,89.26
2017-11-25T09:36:39.038Z,90.21
2017-11-25T09:39:06.715Z,89.10
2017-11-25T09:41:34.641Z,89.69
2017-11-25T09:44:02.319Z,89.28
2017-11-25T09:46:29.997Z,88.23
2017-11-25T09:48:57.726Z,88.46
2017-11-25T09:51:25.315Z,87.29
2017-11-25T09:53:53.481Z,87.69
2017-11-25T09:56:21.134Z,88.43
2017-11-25T09:58:48.768Z,88.04
2017-11-25T10:01:16.369Z,88.89
2017-11-25T10:03:44.003Z,89.12
2017-11-25T10:06:12.668Z,87.78
2017-11-25T10:08:40.422Z,88.83
2017-11-25T10:11:08.330Z,89.24
2017-11-25T10:13:35.934Z,89.69
2017-11-25T10:16:03.545Z,88.84
2017-11-25T10:18:31.206Z,88.99
2017-11-25T10:20:58.845Z,88.92
2017-11-25T10:23:26.444Z,88.59
2017-11-25T10:25:54.083Z,88.65
2017-11-25T10:28:21.692Z,88.94
2017-11-25T10:30:49.460Z,88.01
2017-11-25T10:33:17.610Z,88.24
2017-11-25T10:35:45.463Z,87.65
2017-11-25T10:38:13.157Z,88.35
2017-11-25T10:40:41.118Z,87.04
2017-11-25T10:43:09.529Z,87.96
2017-11-25T10:45:37.280Z,87.87
2017-11-25T10:48:05.148Z,88.63
2017-11-25T10:50:37.082Z,86.78
2017-11-25T10:53:05.561Z,88.07
2017-11-25T10:55:35.333Z,86.23
2017-11-25T10:58:05.474Z,86.20
2017-11-25T11:00:33.318Z,87.22
2017-11-25T11:03:02.781Z,87.89
2017-11-25T11:05:31.100Z,87.51
2017-11-25T11:07:59.580Z,87.78
2017-11-25T11:10:28.351Z,85.93
2017-11-25T11:12:57.350Z,86.41
2017-11-25T11:15:25.803Z,86.34
2017-11-25T11:17:54.252Z,86.76
2017-11-25T11:20:23.145Z,87.24
2017-11-25T11:22:51.632Z,85.19
2017-11-25T11:25:19.863Z,84.80
2017-11-25T11:27:48.644Z,85.08
2017-11-25T11:30:20.083Z,85.64
2017-11-25T11:32:48.155Z,83.95
2017-11-25T11:35:15.813Z,84.38
2017-11-25T11:37:44.495Z,84.75
2017-11-25T11:40:12.082Z,84.37
2017-11-25T11:42:39.877Z,85.51
2017-11-25T11:45:07.562Z,85.08
2017-11-25T11:47:35.150Z,82.41
2017-11-25T11:50:03.256Z,83.12
2017-11-25T11:52:31.027Z,83.49
2017-11-25T11:55:01.278Z,84.74
2017-11-25T11:57:30.197Z,83.65
2017-11-25T11:59:57.892Z,83.08
2017-11-25T12:02:25.475Z,83.21
2017-11-25T12:04:53.092Z,83.87
2017-11-25T12:07:20.750Z,83.78
2017-11-25T12:09:48.358Z,82.54
2017-11-25T12:12:16.070Z,83.15
2017-11-25T12:14:43.726Z,82.14
2017-11-25T12:17:11.320Z,81.43
2017-11-25T12:19:38.893Z,81.81
2017-11-25T12:22:07.642Z,82.01
2017-11-25T12:24:35.805Z,83.63
2017-11-25T12:27:04.716Z,82.99
2017-11-25T12:29:34.563Z,83.34
2017-11-25T12:32:03.519Z,82.19
2017-11-25T12:34:32.143Z,82.01
2017-11-25T12:36:59.826Z,83.16
2017-11-25T12:39:29.002Z,83.85
2017-11-25T12:41:57.193Z,83.24
2017-11-25T12:44:26.390Z,82.52
2017-11-25T12:46:54.691Z,83.20
2017-11-25T12:49:23.771Z,82.27
2017-11-25T12:51:57.017Z,82.59
2017-11-25T12:54:25.115Z,83.89
2017-11-25T12:56:56.414Z,83.75
2017-11-25T12:59:27.173Z,83.78
2017-11-25T13:01:55.090Z,83.73
2017-11-25T13:04:26.516Z,81.80
2017-11-25T13:06:55.831Z,82.35
2017-11-25T13:09:23.897Z,83.08
2017-11-25T13:11:51.617Z,83.83
2017-11-25T13:14:19.696Z,83.04
2017-11-25T13:16:47.475Z,82.90
2017-11-25T13:19:15.337Z,82.49
2017-11-25T13:21:42.961Z,83.39
2017-11-25T13:24:13.022Z,82.19
2017-11-25T13:26:41.385Z,82.27
2017-11-25T13:29:10.366Z,82.61
2017-11-25T13:31:38.762Z,81.17
2017-11-25T13:34:07.522Z,82.14
2017-11-25T13:36:35.954Z,82.33
2017-11-25T13:39:03.626Z,82.90
2017-11-25T13:41:35.047Z,83.07
2017-11-25T13:44:04.023Z,83.72
2017-11-25T13:46:32.905Z,83.13
2017-11-25T13:49:01.656Z,82.22
2017-11-25T13:51:31.710Z,82.55
2017-11-25T13:54:01.123Z,83.36
2017-11-25T13:56:29.452Z,83.78
2017-11-25T13:58:57.219Z,82.01
2017-11-25T14:01:25.072Z,83.14
2017-11-25T14:03:53.298Z,83.46
2017-11-25T14:06:20.958Z,82.62
2017-11-25T14:08:48.759Z,82.64
2017-11-25T14:11:17.214Z,82.73
2017-11-25T14:13:44.961Z,83.75
2017-11-25T14:16:12.562Z,83.00
2017-11-25T14:18:40.159Z,83.04
2017-11-25T14:21:07.781Z,83.70
2017-11-25T14:23:35.669Z,84.06
2017-11-25T14:26:03.293Z,83.06
2017-11-25T14:28:30.910Z,81.45
2017-11-25T14:30:58.524Z,82.65
2017-11-25T14:33:26.914Z,82.41
2017-11-25T14:35:55.009Z,82.02
2017-11-25T14:38:23.545Z,82.70
2017-11-25T14:40:52.060Z,83.64
2017-11-25T14:43:19.750Z,82.71
2017-11-25T14:45:50.746Z,83.12
2017-11-25T14:48:23.526Z,83.17
2017-11-25T14:50:51.390Z,83.41
2017-11-25T14:53:20.223Z,83.65
2017-11-25T14:55:51.214Z,83.80
2017-11-25T14:58:19.828Z,83.12
2017-11-25T15:00:51.834Z,82.66
2017-11-25T15:03:20.397Z,83.16
2017-11-25T15:05:48.020Z,83.35
2017-11-25T15:08:15.615Z,83.39
2017-11-25T15:10:43.249Z,83.70
2017-11-25T15:13:10.859Z,83.57
2017-11-25T15:15:38.601Z,83.78
2017-11-25T15:18:06.258Z,82.68
2017-11-25T15:20:34.397Z,83.59
2017-11-25T15:23:02.194Z,84.30
2017-11-25T15:25:30.837Z,83.38
2017-11-25T15:27:58.473Z,83.39
2017-11-25T15:30:26.067Z,84.14
2017-11-25T15:32:56.076Z,84.53
2017-11-25T15:35:23.710Z,84.41
2017-11-25T15:37:51.455Z,83.69
2017-11-25T15:40:19.077Z,83.26
2017-11-25T15:42:47.004Z,83.67
2017-11-25T15:45:14.585Z,84.09
2017-11-25T15:47:42.273Z,84.08
2017-11-25T15:50:11.851Z,84.45
2017-11-25T15:52:39.803Z,85.00
2017-11-25T15:55:08.147Z,84.33
2017-11-25T15:57:35.766Z,83.87
2017-11-25T16:00:03.380Z,84.56
2017-11-25T16:02:30.998Z,84.95
2017-11-25T16:04:58.712Z,84.83
2017-11-25T16:07:26.431Z,84.47
2017-11-25T16:09:54.069Z,84.59
2017-11-25T16:12:21.732Z,84.67
2017-11-25T16:14:50.481Z,85.88
2017-11-25T16:17:18.795Z,84.69
2017-11-25T16:19:46.453Z,84.93
2017-11-25T16:22:14.100Z,85.15
2017-11-25T16:24:42.712Z,85.65
2017-11-25T16:27:10.358Z,86.10
2017-11-25T16:29:37.960Z,85.29
2017-11-25T16:32:05.617Z,85.83
2017-11-25T16:34:33.553Z,86.47
2017-11-25T16:37:01.160Z,86.18
2017-11-25T16:39:28.811Z,85.96
2017-11-25T16:41:56.799Z,86.10
2017-11-25T16:44:24.424Z,86.15
2017-11-25T16:46:52.106Z,85.75
2017-11-25T16:49:19.835Z,86.18
2017-11-25T16:51:47.488Z,86.25
2017-11-25T16:54:18.261Z,86.54
2017-11-25T16:56:45.892Z,87.00
2017-11-25T16:59:13.574Z,86.78
2017-11-25T17:01:41.223Z,86.20
2017-11-25T17:04:08.869Z,86.35
2017-11-25T17:06:36.563Z,86.51
2017-11-25T17:09:04.222Z,86.77
2017-11-25T17:11:31.849Z,86.53
2017-11-25T17:14:00.480Z,86.20
2017-11-25T17:16:28.551Z,86.67
2017-11-25T17:18:56.172Z,86.94
2017-11-25T17:21:23.751Z,86.94
2017-11-25T17:27:43.978Z,86.53
2017-11-25T17:30:11.687Z,86.34
2017-11-25T17:33:39.940Z,86.54
2017-11-25T17:36:07.561Z,86.35
2017-11-25T17:38:37.628Z,86.98
2017-11-25T17:41:05.230Z,87.17
2017-11-25T17:43:35.271Z,87.59
2017-11-25T17:48:48.605Z,87.43
2017-11-25T17:51:16.197Z,87.91
2017-11-25T17:53:45.191Z,88.13
2017-11-25T17:56:14.102Z,88.14
2017-11-25T17:58:43.019Z,88.19
2017-11-25T18:01:13.361Z,88.59
2017-11-25T18:03:41.078Z,88.60
2017-11-25T18:06:09.047Z,88.62
2017-11-25T18:08:37.195Z,88.76
2017-11-25T18:11:04.823Z,89.34
2017-11-25T18:13:32.420Z,89.34
2017-11-25T18:16:00.083Z,89.39
2017-11-25T18:18:27.682Z,89.22
2017-11-25T18:20:55.282Z,89.38
2017-11-25T18:23:22.953Z,89.76
2017-11-25T18:25:50.552Z,89.85
2017-11-25T18:28:18.154Z,89.29
2017-11-25T18:30:46.664Z,88.70
2017-11-25T18:33:14.567Z,89.08
2017-11-25T18:35:43.153Z,88.78
2017-11-25T18:38:10.791Z,88.65
2017-11-25T18:40:38.431Z,88.63
2017-11-25T18:43:06.049Z,88.79
2017-11-25T18:45:33.698Z,89.16
2017-11-25T18:48:01.298Z,88.76
2017-11-25T18:50:32.988Z,88.51
2017-11-25T18:53:00.641Z,88.40
2017-11-25T18:55:29.468Z,88.21
2017-11-25T18:57:57.060Z,88.33
2017-11-25T19:00:25.228Z,88.08
2017-11-25T19:02:52.830Z,88.03
2017-11-25T19:05:20.777Z,88.38
2017-11-25T19:07:48.528Z,88.33
2017-11-25T19:10:16.449Z,88.65
2017-11-25T19:12:44.355Z,88.79
2017-11-25T19:15:15.196Z,87.79
2017-11-25T19:17:42.793Z,87.56
2017-11-25T19:20:10.422Z,87.27
2017-11-25T19:22:38.080Z,87.45
2017-11-25T19:25:05.661Z,86.84
2017-11-25T19:27:33.306Z,86.81
2017-11-25T19:30:03.481Z,86.61
2017-11-25T19:32:31.220Z,86.88
2017-11-25T19:34:58.862Z,87.13
2017-11-25T19:37:26.626Z,87.41
2017-11-25T19:39:54.268Z,86.83
2017-11-25T19:42:22.140Z,86.96
2017-11-25T19:44:49.918Z,87.39
2017-11-25T19:47:17.663Z,86.97
2017-11-25T19:49:45.358Z,87.16
2017-11-25T19:52:13.061Z,87.08
2017-11-25T19:54:40.658Z,87.40
2017-11-25T19:57:08.258Z,87.72
2017-11-25T19:59:35.920Z,87.33
2017-11-25T20:02:03.523Z,87.29
2017-11-25T20:04:31.113Z,86.70
2017-11-25T20:06:58.772Z,86.88
2017-11-25T20:09:26.631Z,86.86
2017-11-25T20:11:54.290Z,86.52
2017-11-25T20:14:21.934Z,86.85
2017-11-25T20:16:49.529Z,86.56
2017-11-25T20:19:17.155Z,86.58
2017-11-25T20:21:45.050Z,86.63
2017-11-25T20:24:13.544Z,86.60
2017-11-25T20:26:41.140Z,87.02
2017-11-25T20:29:08.758Z,86.97
2017-11-25T20:31:36.356Z,87.10
2017-11-25T20:34:03.945Z,87.00
2017-11-25T20:36:31.569Z,87.12
2017-11-25T20:38:59.184Z,87.13
2017-11-25T20:41:26.849Z,86.83
2017-11-25T20:43:54.864Z,86.49
2017-11-25T20:46:22.441Z,86.32
2017-11-25T20:48:50.042Z,86.36
2017-11-25T20:51:17.674Z,86.57
2017-11-25T20:53:45.260Z,86.77
2017-11-25T20:56:12.850Z,86.03
2017-11-25T20:58:40.481Z,86.52
2017-11-25T21:01:08.067Z,86.93
2017-11-25T21:03:35.666Z,86.96
2017-11-25T21:06:03.300Z,87.06
2017-11-25T21:08:30.896Z,86.62
2017-11-25T21:10:58.486Z,87.15
2017-11-25T21:13:27.009Z,87.65
2017-11-25T21:15:54.610Z,87.90
2017-11-25T21:18:22.207Z,88.09
2017-11-25T21:20:50.089Z,87.76
2017-11-25T21:23:17.694Z,87.75
2017-11-25T21:25:45.281Z,87.56
2017-11-25T21:28:12.919Z,87.73
2017-11-25T21:30:40.516Z,87.88
2017-11-25T21:33:08.143Z,88.03
2017-11-25T21:35:35.772Z,87.88
2017-11-25T21:38:03.361Z,87.99
2017-11-25T21:40:30.963Z,88.03
2017-11-25T21:42:58.603Z,88.02
2017-11-25T21:45:26.191Z,88.22
2017-11-25T21:47:54.285Z,88.25
2017-11-25T21:50:21.949Z,88.32
2017-11-25T21:52:50.531Z,88.43
2017-11-25T21:55:18.117Z,88.58
2017-11-25T21:57:45.760Z,88.36
2017-11-25T22:00:13.624Z,88.20
2017-11-25T22:02:41.486Z,88.39
2017-11-25T22:05:09.539Z,88.30
2017-11-25T22:07:37.139Z,88.36
2017-11-25T22:10:04.713Z,88.56
2017-11-25T22:12:32.347Z,88.31
2017-11-25T22:15:00.210Z,88.35
2017-11-25T22:17:27.819Z,88.53
2017-11-25T22:19:55.545Z,88.58
2017-11-25T22:22:23.130Z,88.55
2017-11-25T22:24:50.717Z,88.45
2017-11-25T22:27:18.390Z,88.11
2017-11-25T22:29:45.992Z,88.17
2017-11-25T22:32:13.859Z,88.05
2017-11-25T22:34:41.484Z,87.85
2017-11-25T22:37:09.082Z,87.92
2017-11-25T22:39:36.673Z,87.90
2017-11-25T22:42:04.342Z,87.74
2017-11-25T22:44:31.981Z,87.81
2017-11-25T22:46:59.582Z,87.86
2017-11-25T22:49:27.221Z,87.80
2017-11-25T22:51:54.814Z,87.57
2017-11-25T22:54:22.418Z,87.95
2017-11-25T22:56:50.088Z,87.85
2017-11-25T22:59:17.698Z,88.12
2017-11-25T23:01:45.301Z,87.89
2017-11-25T23:04:12.955Z,87.75
2017-11-25T23:06:40.540Z,87.76
2017-11-25T23:09:08.118Z,87.74
2017-11-25T23:11:35.749Z,87.77
2017-11-25T23:14:03.614Z,88.05
2017-11-25T23:16:31.214Z,87.97
2017-11-25T23:18:58.852Z,87.93
2017-11-25T23:21:26.447Z,87.92
2017-11-25T23:23:54.532Z,87.79
2017-11-25T23:26:22.158Z,87.80
2017-11-25T23:28:49.750Z,87.97
2017-11-25T23:31:17.766Z,88.08
2017-11-25T23:33:45.399Z,87.64
2017-11-25T23:36:12.984Z,87.65
2017-11-25T23:38:40.577Z,87.69
2017-11-25T23:41:08.202Z,86.92
2017-11-25T23:43:35.786Z,87.06
2017-11-25T23:46:03.655Z,87.06
2017-11-25T23:48:31.290Z,86.79
2017-11-25T23:50:59.180Z,86.96
2017-11-25T23:53:27.047Z,86.73
2017-11-25T23:55:54.690Z,86.69
2017-11-25T23:58:22.296Z,87.08
